Time;durP1;ratioP1;P1;durP2;ratioP2;P2;SDS_P1;SDS_P2;PMS_P1;PMS_P2;Temp;Humidity;BMP_temperature;BMP_pressure;BME280_temperature;BME280_humidity;BME280_pressure;Samples;Min_cycle;Max_cycle;Signal;HPM_P1;HPM_P2
2022/08/18 00:02:03;;;;;;;11.70;11.27;;;;;;;23.63;100.00;51791.28;5113861;28;20203;-60
2022/08/18 00:04:30;;;;;;;12.88;12.15;;;;;;;23.56;100.00;43512.06;5113661;28;20185;-60
2022/08/18 00:06:58;;;;;;;12.80;12.07;;;;;;;23.49;100.00;37892.72;5113711;28;20179;-61
2022/08/18 00:09:25;;;;;;;12.10;11.48;;;;;;;23.27;100.00;36558.97;5113600;28;20185;-60
2022/08/18 00:11:52;;;;;;;12.82;12.23;;;;;;;23.30;100.00;37880.00;5113559;28;20194;-60
2022/08/18 00:14:20;;;;;;;13.15;12.52;;;;;;;23.28;100.00;38538.38;5113321;28;20613;-60
2022/08/18 00:16:48;;;;;;;13.75;12.98;;;;;;;23.40;100.00;39866.59;5113527;28;20211;-60
2022/08/18 00:19:16;;;;;;;12.65;11.85;;;;;;;23.37;100.00;40194.59;5113679;28;20218;-60
2022/08/18 00:21:43;;;;;;;12.32;11.60;;;;;;;23.47;100.00;43505.22;5113597;28;20295;-60
2022/08/18 00:24:10;;;;;;;12.07;11.55;;;;;;;23.53;100.00;46485.31;5113221;28;20187;-61
2022/08/18 00:26:37;;;;;;;12.60;11.70;;;;;;;23.27;100.00;46794.94;5113537;28;20550;-60
2022/08/18 00:29:04;;;;;;;12.10;11.48;;;;;;;23.30;100.00;45144.63;5113176;28;20183;-60
2022/08/18 00:31:31;;;;;;;12.85;12.05;;;;;;;23.36;100.00;50111.31;5113234;28;20194;-60
2022/08/18 00:33:59;;;;;;;13.15;11.82;;;;;;;23.30;100.00;52755.88;5113462;28;20206;-59
2022/08/18 00:36:30;;;;;;;11.55;11.15;;;;;;;23.49;100.00;55756.69;5113412;28;20207;-60
2022/08/18 00:38:57;;;;;;;12.73;12.02;;;;;;;23.48;100.00;53766.19;5113335;28;20630;-60
2022/08/18 00:41:25;;;;;;;14.80;13.60;;;;;;;23.39;100.00;53758.28;5112921;28;20214;-61
2022/08/18 00:43:53;;;;;;;13.90;13.15;;;;;;;23.49;100.00;53104.19;5112900;28;20256;-61
2022/08/18 00:46:23;;;;;;;14.48;13.32;;;;;;;23.51;100.00;52443.66;5113115;28;20281;-60
2022/08/18 00:48:51;;;;;;;14.88;14.02;;;;;;;23.53;100.00;54765.53;5112835;28;20187;-60
2022/08/18 00:51:24;;;;;;;17.50;16.13;;;;;;;23.51;100.00;58413.72;5094776;28;20546;-60
2022/08/18 00:54:00;;;;;;;18.58;17.17;;;;;;;23.54;100.00;57752.38;5113083;28;20573;-59
2022/08/18 00:56:35;;;;;;;17.65;16.10;;;;;;;23.61;100.00;59087.38;5113234;28;20218;-60
2022/08/18 00:59:07;;;;;;;18.40;16.83;;;;;;;23.65;100.00;62746.50;5113040;28;20198;-60
2022/08/18 01:01:35;;;;;;;18.85;17.05;;;;;;;23.46;100.00;62061.47;5112488;28;20207;-60
2022/08/18 01:04:12;;;;;;;20.25;18.13;;;;;;;23.49;100.00;59739.28;5112707;28;20500;-60
2022/08/18 01:06:42;;;;;;;21.02;18.95;;;;;;;23.60;100.00;61411.66;5112792;28;20191;-60
2022/08/18 01:09:11;;;;;;;20.92;18.92;;;;;;;23.56;100.00;64399.28;5112712;28;20739;-60
2022/08/18 01:11:39;;;;;;;20.63;18.70;;;;;;;23.61;100.00;63075.22;5112429;28;20179;-61
2022/08/18 01:14:08;;;;;;;22.42;19.90;;;;;;;23.18;100.00;63693.84;5112212;28;20233;-60
2022/08/18 01:22:13;;;;;;;23.23;19.10;;;;;;;23.31;100.00;49114.00;5112289;28;20194;-60
2022/08/18 01:27:30;;;;;;;22.25;20.15;;;;;;;23.17;100.00;45465.28;5112449;28;20186;-61
2022/08/18 01:30:03;;;;;;;22.52;20.17;;;;;;;23.18;100.00;45135.16;5112152;28;20183;-60
2022/08/18 01:32:30;;;;;;;21.98;20.05;;;;;;;23.21;100.00;57057.16;5112107;28;20658;-60
2022/08/18 01:34:57;;;;;;;23.98;20.85;;;;;;;23.27;100.00;60712.72;5111966;28;20190;-61
2022/08/18 01:37:25;;;;;;;23.05;20.63;;;;;;;23.28;100.00;65033.91;5112296;28;20554;-59
2022/08/18 01:39:53;;;;;;;25.65;19.98;;;;;;;23.22;100.00;64362.91;5111960;28;20234;-61
2022/08/18 01:42:20;;;;;;;22.55;20.35;;;;;;;23.14;100.00;62028.47;5112145;28;20210;-61
2022/08/18 01:44:49;;;;;;;23.02;20.60;;;;;;;23.16;100.00;59706.47;5111892;28;20270;-60
2022/08/18 01:47:18;;;;;;;25.02;20.17;;;;;;;23.10;100.00;65013.88;5111796;28;20184;-60
2022/08/18 01:49:45;;;;;;;21.65;19.33;;;;;;;23.04;100.00;67001.94;5112163;28;20558;-60
2022/08/18 01:52:18;;;;;;;21.77;19.70;;;;;;;23.17;100.00;69679.41;5111920;28;20195;-60
2022/08/18 01:54:45;;;;;;;23.88;19.58;;;;;;;23.16;100.00;68679.16;5112100;28;20211;-61
2022/08/18 01:57:14;;;;;;;21.30;19.33;;;;;;;23.04;100.00;66004.97;5111740;28;20194;-60
2022/08/18 01:59:42;;;;;;;22.67;20.02;;;;;;;23.23;100.00;69020.19;5112005;28;20190;-60
2022/08/18 02:02:09;;;;;;;23.02;20.17;;;;;;;23.18;100.00;96079.97;5112025;28;20237;-60
2022/08/18 02:04:37;;;;;;;26.00;20.38;;;;;;;23.28;100.00;93411.63;5114796;28;20203;-61
2022/08/18 02:07:06;;;;;;;22.08;19.40;;;;;;;23.04;100.00;91699.41;5116227;28;20194;-61
2022/08/18 02:09:36;;;;;;;30.63;19.42;;;;;;;23.20;100.00;90385.09;5116156;28;20613;-60
2022/08/18 02:12:04;;;;;;;21.80;19.73;;;;;;;23.17;100.00;104810.84;5116156;28;20183;-59
2022/08/18 02:14:33;;;;;;;24.25;18.35;;;;;;;23.07;100.00;111187.47;5115857;28;20761;-60
2022/08/18 02:17:03;;;;;;;20.27;18.60;;;;;;;23.01;100.00;105117.91;5115773;28;20180;-60
2022/08/18 02:19:33;;;;;;;22.65;19.17;;;;;;;22.53;100.00;65283.13;5116101;28;20652;-60
2022/08/18 02:22:01;;;;;;;21.40;18.00;;;;;;;22.98;100.00;67993.34;5097774;28;20223;-61
2022/08/18 02:24:28;;;;;;;20.73;18.40;;;;;;;23.02;100.00;71326.00;5116049;28;20578;-60
2022/08/18 02:26:55;;;;;;;26.23;17.95;;;;;;;22.96;100.00;86332.63;5116048;28;20184;-60
2022/08/18 02:29:22;;;;;;;29.10;19.08;;;;;;;22.73;100.00;63644.78;5115497;28;20184;-61
2022/08/18 02:31:50;;;;;;;20.92;18.35;;;;;;;22.72;100.00;60988.28;5115478;28;20188;-60
2022/08/18 02:34:17;;;;;;;20.88;18.98;;;;;;;22.83;100.00;67975.34;5115468;28;20187;-61
2022/08/18 02:36:45;;;;;;;25.13;17.90;;;;;;;22.86;100.00;69642.56;5115727;28;20634;-60
2022/08/18 02:39:12;;;;;;;19.73;17.83;;;;;;;22.65;100.00;71281.59;5115228;28;20190;-60
2022/08/18 02:41:39;;;;;;;30.33;18.75;;;;;;;;;;5115585;28;20731;-61
2022/08/18 02:44:07;;;;;;;31.02;18.98;;;;;;;22.94;100.00;96376.38;5115539;28;20259;-61
2022/08/18 02:46:34;;;;;;;25.08;18.95;;;;;;;22.85;100.00;102402.34;5115186;28;20179;-61
2022/08/18 02:49:03;;;;;;;20.70;18.50;;;;;;;22.91;100.00;119249.00;5115416;28;20179;-59
2022/08/18 02:51:31;;;;;;;21.10;19.10;;;;;;;22.77;100.00;89985.44;5115414;28;20187;-60
2022/08/18 02:53:59;;;;;;;22.92;20.25;;;;;;;22.73;100.00;126983.50;5115415;28;20219;-60
2022/08/18 02:56:28;;;;;;;23.00;18.92;;;;;;;22.82;100.00;135806.56;5114982;28;20180;-61
2022/08/18 02:58:57;;;;;;;19.85;18.15;;;;;;;22.85;100.00;92674.59;5115473;28;20247;-61
2022/08/18 03:01:27;;;;;;;20.63;18.30;;;;;;;22.90;100.00;91343.59;5115114;28;20562;-61
2022/08/18 03:03:55;;;;;;;22.08;18.33;;;;;;;23.02;100.00;104111.13;5114860;28;20190;-60
2022/08/18 03:06:24;;;;;;;19.83;17.80;;;;;;;22.94;100.00;150093.09;5114742;28;20221;-61
2022/08/18 03:08:52;;;;;;;18.58;17.17;;;;;;;23.01;100.00;128734.31;5115067;28;20682;-60
2022/08/18 03:11:22;;;;;;;18.52;17.02;;;;;;;23.02;100.00;143088.47;5114719;28;20240;-60
2022/08/18 03:13:50;;;;;;;18.20;16.33;;;;;;;23.08;100.00;151841.09;5114829;28;20577;-61
2022/08/18 03:16:18;;;;;;;18.38;16.65;;;;;;;23.18;100.00;144938.78;5114564;28;20300;-64
2022/08/18 03:18:46;;;;;;;18.17;15.93;;;;;;;23.20;100.00;151873.00;5114685;28;20194;-61
2022/08/18 03:21:16;;;;;;;15.75;14.15;;;;;;;23.22;100.00;151878.06;5114502;28;20187;-59
2022/08/18 03:23:44;;;;;;;15.05;13.75;;;;;;;23.39;100.00;151918.88;5114536;28;20203;-61
2022/08/18 03:26:13;;;;;;;15.00;13.57;;;;;;;23.51;100.00;151949.56;5114690;28;20285;-61
2022/08/18 03:28:42;;;;;;;14.20;13.30;;;;;;;23.57;100.00;151966.19;5114815;28;20663;-61
2022/08/18 03:31:13;;;;;;;14.15;13.18;;;;;;;23.72;100.00;152003.16;5114331;28;20183;-60
2022/08/18 03:33:40;;;;;;;15.52;13.95;;;;;;;23.79;100.00;152021.06;5114290;28;20276;-60
2022/08/18 03:36:08;;;;;;;16.00;14.73;;;;;;;23.88;100.00;152042.75;5114499;28;20618;-60
2022/08/18 03:38:35;;;;;;;17.27;16.00;;;;;;;23.84;100.00;152033.84;5114242;28;20562;-60
2022/08/18 03:41:05;;;;;;;20.75;16.27;;;;;;;23.86;100.00;152038.91;5096352;28;20212;-60
2022/08/18 03:43:32;;;;;;;16.23;14.80;;;;;;;23.82;100.00;152028.69;5113948;28;20203;-60
2022/08/18 03:46:01;;;;;;;16.23;14.70;;;;;;;23.67;100.00;151990.44;5113963;28;20186;-59
2022/08/18 03:48:29;;;;;;;17.45;15.93;;;;;;;23.85;100.00;152036.34;5113998;28;20188;-60
2022/08/18 03:50:55;;;;;;;15.57;14.43;;;;;;;23.90;100.00;152047.84;5114316;28;20534;-60
2022/08/18 03:53:22;;;;;;;21.67;14.85;;;;;;;23.97;100.00;152067.03;5114170;28;20650;-60
2022/08/18 03:55:49;;;;;;;15.70;14.43;;;;;;;23.87;100.00;152041.47;5114144;28;20187;-60
2022/08/18 03:58:17;;;;;;;16.65;15.38;;;;;;;23.86;100.00;152038.91;5114128;28;20602;-59
2022/08/18 04:00:44;;;;;;;22.33;18.58;;;;;;;23.92;100.00;152052.97;5114061;28;20602;-61
2022/08/18 04:03:11;;;;;;;28.92;23.23;;;;;;;23.96;100.00;152064.47;5113662;28;20199;-62
2022/08/18 04:05:39;;;;;;;28.35;23.75;;;;;;;23.89;100.00;152045.31;5113652;28;20183;-60
2022/08/18 04:08:06;;;;;;;28.65;25.60;;;;;;;23.85;100.00;152036.34;5114050;28;20236;-61
2022/08/18 04:10:34;;;;;;;34.38;25.42;;;;;;;23.97;100.00;152067.03;5113629;28;20195;-60
2022/08/18 04:13:04;;;;;;;28.77;25.90;;;;;;;24.02;100.00;152079.75;5113602;28;20643;-60
2022/08/18 04:15:32;;;;;;;40.03;24.63;;;;;;;24.12;100.00;152105.31;5113415;28;20312;-60
2022/08/18 04:18:02;;;;;;;36.95;27.02;;;;;;;24.20;100.00;152124.50;5113586;28;20194;-60
2022/08/18 04:20:31;;;;;;;39.17;26.35;;;;;;;24.23;100.00;152132.16;5113791;28;20659;-60
2022/08/18 04:22:58;;;;;;;32.90;26.88;;;;;;;24.25;100.00;152136.00;5113391;28;20669;-61
2022/08/18 04:25:25;;;;;;;38.38;28.50;;;;;;;24.19;100.00;152120.69;5113586;28;20236;-61
2022/08/18 04:27:56;;;;;;;30.83;27.63;;;;;;;24.14;100.00;152110.38;5113087;28;20557;-60
2022/08/18 04:30:23;;;;;;;44.15;29.38;;;;;;;24.33;100.00;152156.41;5113552;28;20626;-61
2022/08/18 04:32:51;;;;;;;37.80;27.17;;;;;;;23.96;100.00;152064.47;5113229;28;20271;-52
2022/08/18 04:35:18;;;;;;;32.75;27.17;;;;;;;24.27;100.00;152141.13;5113218;28;20183;-53
2022/08/18 04:37:46;;;;;;;33.78;28.40;;;;;;;24.26;100.00;152138.56;5113574;28;20183;-61
2022/08/18 04:40:13;;;;;;;37.00;27.52;;;;;;;24.55;100.00;152212.59;5113184;28;20195;-60
2022/08/18 04:42:40;;;;;;;32.03;27.88;;;;;;;24.59;100.00;152222.81;5113326;28;20211;-61
2022/08/18 04:45:08;;;;;;;34.33;26.38;;;;;;;24.50;100.00;152199.84;5113037;28;20189;-60
2022/08/18 04:47:35;;;;;;;40.50;29.38;;;;;;;24.68;100.00;152245.81;5112955;28;20274;-60
2022/08/18 04:50:04;;;;;;;41.38;27.80;;;;;;;24.89;100.00;152299.50;5113189;28;20561;-60
2022/08/18 04:55:15;;;;;;;43.15;29.30;;;;;;;25.03;100.00;152334.00;5112991;28;20175;-61
2022/08/18 04:57:42;;;;;;;30.10;21.77;;;;;;;25.04;100.00;152335.28;5113088;28;20735;-61
2022/08/18 05:00:11;;;;;;;35.38;27.77;;;;;;;25.12;100.00;152355.72;5112949;28;20265;-61
2022/08/18 05:02:38;;;;;;;39.45;25.70;;;;;;;25.20;100.00;152376.16;5112595;28;20203;-61
2022/08/18 05:05:07;;;;;;;31.33;26.45;;;;;;;25.37;100.00;152420.91;5112639;28;20190;-61
2022/08/18 05:07:34;;;;;;;54.03;29.30;;;;;;;25.54;100.00;152463.09;5112892;28;20183;-60
2022/08/18 05:10:01;;;;;;;49.08;30.65;;;;;;;25.74;100.00;152514.22;5112399;28;20183;-60
2022/08/18 05:12:28;;;;;;;47.92;25.83;;;;;;;26.16;100.00;152619.03;5112892;28;20203;-61
2022/08/18 05:14:56;;;;;;;76.55;33.20;;;;;;;26.80;100.00;152781.47;5112318;28;20223;-60
2022/08/18 05:17:27;;;;;;;69.15;32.90;;;;;;;27.28;100.00;152903.03;5112784;28;20612;-60
2022/08/18 05:19:54;;;;;;;43.40;26.10;;;;;;;27.74;100.00;153018.22;5112621;28;20203;-61
2022/08/18 05:22:24;;;;;;;40.30;27.02;;;;;;;27.96;100.00;153074.56;5112152;28;20237;-61
2022/08/18 05:24:51;;;;;;;38.92;26.17;;;;;;;27.97;100.00;153078.34;5112387;28;20187;-61
2022/08/18 05:27:20;;;;;;;25.00;16.52;;;;;;;28.31;100.00;153164.16;5094527;28;20634;-61
2022/08/18 05:29:47;;;;;;;42.63;25.85;;;;;;;28.47;100.00;153205.19;5112433;28;20179;-61
2022/08/18 05:32:14;;;;;;;35.10;22.25;;;;;;;28.81;100.00;153291.00;5094475;28;20222;-61
2022/08/18 05:34:42;;;;;;;34.20;18.75;;;;;;;29.42;100.00;153446.00;5112321;28;20676;-61
2022/08/18 05:37:21;;;;;;;34.25;18.75;;;;;;;30.81;100.00;153798.50;5112269;28;20184;-61
2022/08/18 05:39:57;;;;;;;20.27;16.15;;;;;;;30.95;100.00;153833.13;5112014;28;20214;-61
2022/08/18 05:42:28;;;;;;;27.52;16.33;;;;;;;32.22;100.00;154153.94;5112332;28;20183;-61
2022/08/18 05:44:56;;;;;;;33.42;15.02;;;;;;;33.30;100.00;154430.00;5111677;28;20191;-61
2022/08/18 05:47:25;;;;;;;38.50;14.63;;;;;;;34.80;89.48;154811.63;5111760;28;20194;-64
2022/08/18 05:49:55;;;;;;;22.75;13.50;;;;;;;35.12;84.74;154892.59;5111767;28;20184;-61
2022/08/18 05:52:28;;;;;;;14.43;12.60;;;;;;;36.02;77.43;155120.25;5111833;28;20190;-60
2022/08/18 05:58:04;;;;;;;21.20;12.15;;;;;;;35.70;77.58;155040.50;5049162;28;20193;-61
2022/08/18 06:00:32;;;;;;;15.90;10.82;;;;;;;35.16;81.04;154902.94;5049000;28;20189;-60
2022/08/18 06:03:07;;;;;;;16.90;11.18;;;;;;;35.07;84.62;154878.44;5078391;28;20222;-61
2022/08/18 06:05:38;;;;;;;18.83;12.13;;;;;;;34.60;85.88;154760.19;5111585;28;20186;-60
2022/08/18 06:08:11;;;;;;;17.73;10.60;;;;;;;35.29;83.04;154935.06;5111855;28;20180;-61
2022/08/18 06:10:42;;;;;;;16.25;9.85;;;;;;;36.04;75.92;155125.38;5111282;28;20183;-61
2022/08/18 06:13:11;;;;;;;12.80;8.75;;;;;;;36.45;73.23;155230.84;5111888;28;20179;-58
2022/08/18 06:16:01;;;;;;;10.20;8.98;;;;;;;36.17;74.72;155160.13;5111342;28;20231;-61
2022/08/18 06:18:44;;;;;;;10.38;9.88;;;;;;;37.60;66.47;155523.03;5111586;28;20188;-61
2022/08/18 06:21:22;;;;;;;19.83;11.35;;;;;;;38.66;61.22;155793.47;5111698;28;20264;-61
2022/08/18 06:23:56;;;;;;;9.45;8.63;;;;;;;38.60;59.95;155778.03;5111709;28;20620;-61
2022/08/18 06:26:33;;;;;;;9.90;9.20;;;;;;;37.65;63.85;155534.63;5093810;28;20238;-61
2022/08/18 06:29:11;;;;;;;9.32;8.48;;;;;;;36.62;66.24;155274.63;5111553;28;20180;-61
2022/08/18 06:31:48;;;;;;;9.25;8.65;;;;;;;36.05;73.69;155129.22;5077691;28;20557;-60
2022/08/18 06:34:25;;;;;;;9.23;8.57;;;;;;;35.41;75.77;154965.91;5111375;28;20187;-60
2022/08/18 06:37:03;;;;;;;13.50;8.77;;;;;;;34.55;83.47;154747.31;5111664;28;20526;-61
2022/08/18 06:39:44;;;;;;;10.20;8.63;;;;;;;34.50;85.26;154734.47;5102017;28;20242;-62
2022/08/18 06:42:13;;;;;;;10.10;8.73;;;;;;;34.21;86.81;154659.97;5093208;28;20646;-61
2022/08/18 06:44:45;;;;;;;9.10;8.35;;;;;;;33.77;90.76;154549.50;5099860;28;20222;-61
2022/08/18 06:47:25;;;;;;;8.85;8.15;;;;;;;33.64;92.97;154516.03;5091283;28;20184;-61
2022/08/18 06:49:57;;;;;;;8.85;7.93;;;;;;;33.62;93.19;154510.88;5092827;28;20622;-60
2022/08/18 06:52:27;;;;;;;8.80;8.25;;;;;;;33.24;94.61;154413.31;5094541;28;20291;-60
2022/08/18 06:54:56;;;;;;;8.68;8.10;;;;;;;33.11;94.27;154381.16;5095121;28;20558;-61
2022/08/18 06:57:29;;;;;;;8.82;8.15;;;;;;;33.41;92.72;154458.25;5095002;28;20237;-61
2022/08/18 07:00:00;;;;;;;18.92;9.05;;;;;;;33.45;94.58;154468.53;5094995;28;20558;-61
2022/08/18 07:02:38;;;;;;;9.38;8.55;;;;;;;33.50;94.38;154480.06;5094638;28;20630;-61
2022/08/18 07:05:08;;;;;;;11.93;8.77;;;;;;;33.44;95.25;154464.69;5103818;28;20573;-61
2022/08/18 07:07:38;;;;;;;11.43;8.77;;;;;;;33.74;94.51;154540.47;5094547;28;20279;-61
2022/08/18 07:10:26;;;;;;;9.35;8.50;;;;;;;33.76;93.20;154545.63;5094582;28;20634;-61
2022/08/18 07:13:06;;;;;;;9.57;8.65;;;;;;;33.76;90.94;154545.63;5094633;28;20574;-61
2022/08/18 07:15:33;;;;;;;10.00;9.02;;;;;;;33.55;93.60;154492.94;5094399;28;20227;-61
2022/08/18 07:18:05;;;;;;;13.63;8.10;;;;;;;33.63;93.59;154512.19;5094515;28;20195;-61
2022/08/18 07:20:42;;;;;;;8.93;8.23;;;;;;;33.50;94.29;154480.06;5094156;28;20183;-61
2022/08/18 07:23:09;;;;;;;9.35;8.43;;;;;;;33.51;95.14;154482.66;5094274;28;20582;-62
2022/08/18 07:25:41;;;;;;;9.43;8.55;;;;;;;33.75;92.69;154544.31;5094153;28;20184;-61
2022/08/18 07:28:28;;;;;;;9.23;8.52;;;;;;;33.77;90.37;154548.19;5094115;28;20195;-61
2022/08/18 07:31:25;;;;;;;9.77;8.70;;;;;;;33.74;92.28;154541.75;5094389;28;20597;-61
2022/08/18 07:33:57;;;;;;;10.48;9.40;;;;;;;33.89;93.69;154580.31;5093666;28;20192;-61
2022/08/18 07:36:28;;;;;;;10.07;9.18;;;;;;;34.00;91.41;154607.25;5076582;28;20202;-61
2022/08/18 07:39:00;;;;;;;8.27;7.95;;;;;;;33.96;91.33;154598.28;5094222;28;20635;-60
2022/08/18 07:41:34;;;;;;;149.77;120.43;;;;;;;34.04;89.99;154616.22;5093790;28;20207;-60
2022/08/18 07:44:15;;;;;;;10.15;9.13;;;;;;;34.16;88.65;154648.41;5093667;28;20212;-61
2022/08/18 07:46:50;;;;;;;9.27;8.65;;;;;;;34.07;87.60;154623.97;5093760;28;20279;-61
2022/08/18 07:49:21;;;;;;;9.68;9.02;;;;;;;34.22;86.71;154662.53;5093570;28;20206;-61
2022/08/18 07:51:54;;;;;;;9.43;8.52;;;;;;;34.33;88.18;154692.06;5093966;28;20184;-61
2022/08/18 07:54:33;;;;;;;10.90;8.15;;;;;;;34.47;87.46;154725.47;5093648;28;20188;-61
2022/08/18 07:57:09;;;;;;;8.88;8.18;;;;;;;34.57;87.99;154752.50;5093410;28;20194;-61
2022/08/18 07:59:47;;;;;;;8.68;8.15;;;;;;;34.68;82.19;154780.78;5093402;28;20630;-61
2022/08/18 08:02:27;;;;;;;9.32;8.60;;;;;;;34.77;84.30;154803.91;5092374;28;20558;-62
2022/08/18 08:05:07;;;;;;;8.85;8.25;;;;;;;34.68;83.77;154779.50;5093574;28;20294;-61
2022/08/18 08:07:47;;;;;;;13.43;9.10;;;;;;;34.97;82.77;154854.03;5093605;28;20187;-61
2022/08/18 08:10:28;;;;;;;9.23;8.32;;;;;;;35.05;80.98;154873.34;5093208;28;20274;-61
2022/08/18 08:13:06;;;;;;;9.02;8.35;;;;;;;35.23;78.37;154919.63;5093279;28;20198;-61
2022/08/18 08:15:45;;;;;;;8.70;8.27;;;;;;;35.26;78.21;154928.59;5093067;28;20739;-61
2022/08/18 08:18:18;;;;;;;10.95;8.25;;;;;;;35.27;77.08;154929.91;5093352;28;20258;-61
2022/08/18 08:20:54;;;;;;;9.65;8.73;;;;;;;35.03;79.83;154869.47;5093199;28;20184;-61
2022/08/18 08:23:26;;;;;;;9.57;8.80;;;;;;;35.26;78.90;154927.38;5093141;28;20229;-61
2022/08/18 08:26:08;;;;;;;9.85;9.02;;;;;;;35.60;76.93;155014.78;5093299;28;20558;-61
2022/08/18 08:28:43;;;;;;;11.90;8.77;;;;;;;35.63;77.73;155021.19;5093272;28;20586;-62
2022/08/18 08:31:23;;;;;;;11.82;8.70;;;;;;;35.58;76.45;155009.63;5092973;28;20195;-61
2022/08/18 08:33:55;;;;;;;11.70;8.50;;;;;;;35.38;80.84;154958.22;5093209;28;20270;-61
2022/08/18 08:36:28;;;;;;;8.43;7.75;;;;;;;35.36;80.86;154951.75;5093112;28;20188;-60
2022/08/18 08:38:59;;;;;;;11.45;8.50;;;;;;;35.41;78.52;154965.91;5093093;28;20285;-60
2022/08/18 08:41:36;;;;;;;9.50;8.95;;;;;;;34.42;82.79;154712.69;5093222;28;20187;-61
2022/08/18 08:44:08;;;;;;;8.15;7.13;;;;;;;34.95;80.94;154847.63;5092554;28;20574;-61
2022/08/18 08:46:44;;;;;;;7.38;6.60;;;;;;;35.47;72.17;154981.34;5092703;28;20647;-61
2022/08/18 08:49:28;;;;;;;7.03;6.43;;;;;;;36.06;70.16;155131.81;5092483;28;20202;-61
2022/08/18 08:52:01;;;;;;;5.95;5.65;;;;;;;36.52;67.72;155248.88;5074195;28;20199;-61
2022/08/18 08:54:38;;;;;;;8.65;5.90;;;;;;;36.84;61.26;155328.66;5092703;28;20618;-62
2022/08/18 08:57:05;;;;;;;6.32;5.80;;;;;;;37.01;58.79;155372.41;5093105;28;20270;-63
2022/08/18 08:59:33;;;;;;;5.95;5.50;;;;;;;36.82;57.99;155323.53;5092607;28;20252;-62
2022/08/18 09:02:21;;;;;;;5.25;4.95;;;;;;;36.94;58.26;155354.41;5074848;28;20645;-62
2022/08/18 09:04:55;;;;;;;8.45;5.53;;;;;;;37.20;52.96;155421.34;5092466;28;20573;-61
2022/08/18 09:07:47;;;;;;;5.65;5.18;;;;;;;37.16;52.11;155411.06;5092080;28;20267;-61
2022/08/18 09:10:39;;;;;;;6.28;5.85;;;;;;;36.96;55.39;155359.56;5092001;28;20184;-62
2022/08/18 09:13:28;;;;;;;6.03;5.40;;;;;;;37.32;55.04;155450.94;5091764;28;20180;-62
2022/08/18 09:16:10;;;;;;;5.70;5.30;;;;;;;37.63;50.96;155529.50;5092186;28;20184;-61
2022/08/18 09:18:58;;;;;;;4.90;4.70;;;;;;;37.63;53.28;155529.50;5092145;28;20191;-61
2022/08/18 09:21:43;;;;;;;5.85;5.38;;;;;;;37.69;51.39;155544.91;5092059;28;20184;-60
2022/08/18 09:24:24;;;;;;;4.85;4.75;;;;;;;37.67;50.98;155539.78;5091710;28;20208;-61
2022/08/18 09:26:53;;;;;;;4.40;4.20;;;;;;;37.55;50.63;155508.91;5091877;28;20198;-61
2022/08/18 09:29:25;;;;;;;5.15;4.82;;;;;;;37.76;51.87;155562.97;5091877;28;20302;-61
2022/08/18 09:32:29;;;;;;;5.68;5.15;;;;;;;37.63;48.62;155530.78;5091706;28;20187;-61
2022/08/18 09:35:10;;;;;;;5.13;4.93;;;;;;;37.55;49.57;155508.91;5092102;28;20557;-62
2022/08/18 09:37:46;;;;;;;5.53;5.22;;;;;;;37.77;48.64;155565.56;5091675;28;20184;-63
2022/08/18 09:43:10;;;;;;;5.15;4.95;;;;;;;37.14;50.59;155405.91;5079558;28;20191;-61
2022/08/18 09:45:56;;;;;;;5.10;4.78;;;;;;;37.44;50.51;155483.13;5091414;28;20204;-61
2022/08/18 09:48:30;;;;;;;5.32;5.03;;;;;;;37.53;49.86;155505.03;5091823;28;20660;-62
2022/08/18 09:51:22;;;;;;;5.93;5.45;;;;;;;37.09;49.62;155393.03;5091768;28;20191;-61
2022/08/18 09:54:13;;;;;;;5.68;5.47;;;;;;;37.01;49.27;155373.69;5091800;28;20184;-61
2022/08/18 09:57:16;;;;;;;6.00;5.60;;;;;;;37.13;50.26;155402.06;5091442;28;20192;-62
2022/08/18 10:00:19;;;;;;;6.00;5.50;;;;;;;37.45;50.27;155485.69;5091343;28;20191;-63
2022/08/18 10:03:23;;;;;;;5.70;5.32;;;;;;;37.71;49.32;155550.09;5091740;28;20589;-61
2022/08/18 10:06:12;;;;;;;6.05;5.40;;;;;;;37.83;49.49;155580.97;5091239;28;20295;-61
2022/08/18 10:09:30;;;;;;;6.05;5.47;;;;;;;37.70;48.06;155547.50;5073324;28;20253;-61
2022/08/18 10:12:23;;;;;;;5.70;5.38;;;;;;;37.11;48.70;155396.91;5043800;28;20204;-62
2022/08/18 10:15:08;;;;;;;5.82;5.63;;;;;;;36.96;50.27;155359.56;5091123;28;20232;-61
2022/08/18 10:17:57;;;;;;;5.85;5.28;;;;;;;36.79;51.66;155315.81;5091813;28;20270;-61
2022/08/18 10:20:36;;;;;;;5.53;5.28;;;;;;;36.72;51.19;155299.09;5091984;28;20188;-61
2022/08/18 10:23:06;;;;;;;6.30;6.07;;;;;;;36.76;50.08;155309.38;5091210;28;20215;-61
2022/08/18 10:25:37;;;;;;;6.03;5.72;;;;;;;36.21;50.92;155169.13;5094193;28;20215;-61
2022/08/18 10:28:06;;;;;;;6.50;6.03;;;;;;;36.45;52.40;155230.84;5095190;28;20184;-61
2022/08/18 10:31:05;;;;;;;5.93;5.63;;;;;;;36.94;51.16;155354.41;5095157;28;20210;-61
2022/08/18 10:33:58;;;;;;;6.10;5.80;;;;;;;37.10;51.54;155394.31;5095043;28;20221;-62
2022/08/18 10:36:48;;;;;;;5.57;5.18;;;;;;;37.60;48.29;155523.03;5076968;28;20184;-62
2022/08/18 10:39:19;;;;;;;6.70;6.20;;;;;;;37.67;47.49;155541.09;5089721;28;20204;-61
2022/08/18 10:42:05;;;;;;;6.32;5.85;;;;;;;37.53;49.06;155505.03;5095037;28;20191;-61
2022/08/18 10:44:41;;;;;;;6.70;5.85;;;;;;;37.69;47.95;155544.91;5091026;28;20609;-61
2022/08/18 10:47:19;;;;;;;7.47;5.70;;;;;;;37.32;47.63;155452.22;5095114;28;20188;-61
2022/08/18 10:49:49;;;;;;;5.65;5.43;;;;;;;37.24;47.79;155431.66;5094751;28;20195;-61
2022/08/18 10:52:29;;;;;;;6.57;6.03;;;;;;;37.31;47.91;155448.34;5095116;28;20188;-61
2022/08/18 10:55:16;;;;;;;5.65;5.45;;;;;;;37.19;48.56;155417.47;5094508;28;20184;-61
2022/08/18 10:58:14;;;;;;;6.35;5.93;;;;;;;37.40;48.39;155471.53;5094503;28;20282;-61
2022/08/18 11:01:03;;;;;;;6.43;6.22;;;;;;;37.53;50.80;155505.03;5094085;28;20203;-61
2022/08/18 11:04:00;;;;;;;6.10;5.90;;;;;;;37.01;48.36;155372.41;5095609;28;20188;-61
2022/08/18 11:06:27;;;;;;;6.68;6.28;;;;;;;36.85;49.00;155331.25;5094456;28;20211;-61
2022/08/18 11:08:58;;;;;;;6.25;5.85;;;;;;;36.87;49.19;155336.41;5094399;28;20184;-61
2022/08/18 11:11:34;;;;;;;6.80;6.40;;;;;;;36.83;49.79;155326.13;5094321;28;20184;-61
2022/08/18 11:14:10;;;;;;;8.80;8.38;;;;;;;35.95;93.71;155102.22;5094136;28;20222;-61
2022/08/18 11:16:48;;;;;;;8.93;8.32;;;;;;;34.37;100.00;154701.13;5094236;28;20287;-59
2022/08/18 11:19:19;;;;;;;9.32;8.70;;;;;;;33.75;100.00;154544.31;5094211;28;20199;-60
2022/08/18 11:21:47;;;;;;;9.82;8.88;;;;;;;32.97;100.00;154345.25;5094409;28;20554;-61
2022/08/18 11:24:19;;;;;;;9.25;8.95;;;;;;;31.24;100.00;153906.25;5094334;28;20207;-60
2022/08/18 11:26:50;;;;;;;9.82;9.35;;;;;;;31.45;100.00;153960.13;5094412;28;20237;-61
2022/08/18 11:29:27;;;;;;;9.85;9.45;;;;;;;31.04;100.00;153854.97;5094759;28;20608;-61
2022/08/18 11:31:58;;;;;;;10.55;9.60;;;;;;;31.16;100.00;153887.03;5093910;28;20188;-61
2022/08/18 11:34:30;;;;;;;9.20;8.50;;;;;;;31.00;100.00;153846.03;5093963;28;20180;-62
2022/08/18 11:37:00;;;;;;;10.95;10.13;;;;;;;30.79;100.00;153793.41;5093726;28;20180;-61
2022/08/18 11:39:28;;;;;;;9.57;9.18;;;;;;;30.57;100.00;153737.00;5094150;28;20184;-61
2022/08/18 11:41:57;;;;;;;9.40;9.00;;;;;;;30.12;100.00;153622.88;5094033;28;20184;-61
2022/08/18 11:44:32;;;;;;;9.88;9.23;;;;;;;30.10;100.00;153616.44;5093751;28;20632;-61
2022/08/18 11:47:12;;;;;;;10.15;9.55;;;;;;;29.83;100.00;153548.50;5093774;28;20187;-62
2022/08/18 11:49:50;;;;;;;9.45;8.95;;;;;;;30.07;100.00;153610.06;5094049;28;20187;-62
2022/08/18 11:52:23;;;;;;;9.93;9.30;;;;;;;30.13;100.00;153625.41;5093899;28;20242;-61
2022/08/18 11:54:51;;;;;;;18.73;9.95;;;;;;;30.10;100.00;153616.44;5093523;28;20233;-61
2022/08/18 11:57:57;;;;;;;9.43;8.82;;;;;;;29.88;100.00;153561.34;5103952;28;20199;-61
2022/08/18 12:00:54;;;;;;;10.40;9.80;;;;;;;29.58;100.00;153485.69;5113763;28;20221;-61